createdAt,value
2018-03-30T00:00:55.020Z,1003.51
2018-03-30T00:01:54.970Z,1003.53
2018-03-30T00:02:54.917Z,1003.52
2018-03-30T00:03:54.867Z,1003.56
2018-03-30T00:04:54.816Z,1003.54
2018-03-30T00:05:54.766Z,1003.60
2018-03-30T00:06:54.714Z,1003.61
2018-03-30T00:07:54.667Z,1003.65
2018-03-30T00:08:54.615Z,1003.61
2018-03-30T00:09:54.562Z,1003.62
2018-03-30T00:10:54.511Z,1003.62
2018-03-30T00:11:54.461Z,1003.61
2018-03-30T00:12:54.410Z,1003.66
2018-03-30T00:13:54.360Z,1003.64
2018-03-30T00:14:54.308Z,1003.65
2018-03-30T00:15:54.257Z,1003.66
2018-03-30T00:16:54.207Z,1003.69
2018-03-30T00:17:54.155Z,1003.71
2018-03-30T00:18:54.104Z,1003.73
2018-03-30T00:19:54.054Z,1003.69
2018-03-30T00:20:54.003Z,1003.69
2018-03-30T00:21:53.955Z,1003.68
2018-03-30T00:22:53.902Z,1003.68
2018-03-30T00:23:53.851Z,1003.68
2018-03-30T00:24:53.800Z,1003.69
2018-03-30T00:25:53.754Z,1003.71
2018-03-30T00:26:53.699Z,1003.74
2018-03-30T00:27:53.648Z,1003.77
2018-03-30T00:28:53.599Z,1003.79
2018-03-30T00:29:53.547Z,1003.78
2018-03-30T00:30:53.495Z,1003.77
2018-03-30T00:31:53.447Z,1003.78
2018-03-30T00:32:53.394Z,1003.77
2018-03-30T00:33:53.347Z,1003.83
2018-03-30T00:34:53.292Z,1003.84
2018-03-30T00:35:53.241Z,1003.84
2018-03-30T00:36:53.191Z,1003.90
2018-03-30T00:37:53.147Z,1003.91
2018-03-30T00:38:53.088Z,1003.94
2018-03-30T00:39:53.038Z,1003.92
2018-03-30T00:40:52.987Z,1003.98
2018-03-30T00:41:52.937Z,1003.98
2018-03-30T00:42:52.910Z,1003.96
2018-03-30T00:43:52.835Z,1003.97
2018-03-30T00:44:52.784Z,1003.92
2018-03-30T00:45:52.733Z,1003.97
2018-03-30T00:46:52.681Z,1003.95
2018-03-30T00:47:52.636Z,1003.99
2018-03-30T00:48:52.630Z,1004.01
2018-03-30T00:49:52.533Z,1003.95
2018-03-30T00:50:52.477Z,1003.99
2018-03-30T00:51:52.427Z,1004.02
2018-03-30T00:52:52.376Z,1004.04
2018-03-30T00:53:52.326Z,1004.03
2018-03-30T00:54:52.276Z,1003.99
2018-03-30T00:55:52.226Z,1004.03
2018-03-30T00:56:52.173Z,1004.01
2018-03-30T00:57:52.120Z,1003.99
2018-03-30T00:58:52.070Z,1003.99
2018-03-30T00:59:52.019Z,1003.98
2018-03-30T01:00:51.968Z,1003.96
2018-03-30T01:01:51.918Z,1004.00
2018-03-30T01:02:51.865Z,1004.07
2018-03-30T01:03:51.816Z,1004.06
2018-03-30T01:04:51.815Z,1004.09
2018-03-30T01:05:51.714Z,1004.08
2018-03-30T01:06:51.662Z,1004.07
2018-03-30T01:07:51.612Z,1004.03
2018-03-30T01:08:51.560Z,1004.04
2018-03-30T01:09:51.510Z,1004.05
2018-03-30T01:10:51.458Z,1004.06
2018-03-30T01:11:51.408Z,1004.06
2018-03-30T01:12:51.356Z,1004.07
2018-03-30T01:13:51.306Z,1004.04
2018-03-30T01:14:51.255Z,1004.09
2018-03-30T01:15:51.204Z,1004.13
2018-03-30T01:16:51.156Z,1004.15
2018-03-30T01:17:51.102Z,1004.20
2018-03-30T01:18:51.050Z,1004.19
2018-03-30T01:19:51.007Z,1004.18
2018-03-30T01:20:50.948Z,1004.19
2018-03-30T01:21:50.897Z,1004.17
2018-03-30T01:22:50.845Z,1004.17
2018-03-30T01:23:50.794Z,1004.17
2018-03-30T01:24:50.743Z,1004.14
2018-03-30T01:25:50.692Z,1004.17
2018-03-30T01:26:50.640Z,1004.17
2018-03-30T01:27:50.590Z,1004.19
2018-03-30T01:28:50.538Z,1004.19
2018-03-30T01:29:50.487Z,1004.16
2018-03-30T01:30:50.435Z,1004.12
2018-03-30T01:31:50.384Z,1004.16
2018-03-30T01:32:50.332Z,1004.15
2018-03-30T01:33:50.282Z,1004.14
2018-03-30T01:34:50.230Z,1004.18
2018-03-30T01:35:50.178Z,1004.18
2018-03-30T01:36:50.126Z,1004.19
2018-03-30T01:37:50.076Z,1004.20
2018-03-30T01:38:50.024Z,1004.20
2018-03-30T01:39:49.972Z,1004.21
2018-03-30T01:40:49.923Z,1004.27
2018-03-30T01:41:49.870Z,1004.26
2018-03-30T01:42:49.817Z,1004.27
2018-03-30T01:43:49.771Z,1004.27
2018-03-30T01:44:49.715Z,1004.28
2018-03-30T01:45:49.663Z,1004.28
2018-03-30T01:46:49.611Z,1004.27
2018-03-30T01:47:49.560Z,1004.23
2018-03-30T01:48:49.508Z,1004.31
2018-03-30T01:49:49.457Z,1004.29
2018-03-30T01:50:49.405Z,1004.32
2018-03-30T01:51:49.353Z,1004.31
2018-03-30T01:52:49.304Z,1004.30
2018-03-30T01:53:49.251Z,1004.33
2018-03-30T01:54:49.198Z,1004.33
2018-03-30T01:55:49.147Z,1004.35
2018-03-30T01:56:49.096Z,1004.34
2018-03-30T01:57:49.044Z,1004.36
2018-03-30T01:58:48.992Z,1004.37
2018-03-30T01:59:48.940Z,1004.44
2018-03-30T02:00:48.898Z,1004.47
2018-03-30T02:01:48.838Z,1004.49
2018-03-30T02:02:48.786Z,1004.47
2018-03-30T02:03:48.733Z,1004.45
2018-03-30T02:04:48.687Z,1004.44
2018-03-30T02:05:48.630Z,1004.48
2018-03-30T02:06:48.577Z,1004.43
2018-03-30T02:07:48.526Z,1004.43
2018-03-30T02:08:48.475Z,1004.48
2018-03-30T02:09:48.423Z,1004.51
2018-03-30T02:10:48.373Z,1004.52
2018-03-30T02:11:48.319Z,1004.53
2018-03-30T02:12:48.268Z,1004.56
2018-03-30T02:13:48.216Z,1004.57
2018-03-30T02:14:48.165Z,1004.59
2018-03-30T02:15:48.112Z,1004.59
2018-03-30T02:16:48.060Z,1004.59
2018-03-30T02:17:48.063Z,1004.60
2018-03-30T02:18:47.956Z,1004.58
2018-03-30T02:19:47.905Z,1004.59
2018-03-30T02:20:47.853Z,1004.67
2018-03-30T02:21:47.802Z,1004.63
2018-03-30T02:22:47.749Z,1004.61
2018-03-30T02:23:47.704Z,1004.58
2018-03-30T02:24:47.645Z,1004.63
2018-03-30T02:25:47.648Z,1004.60
2018-03-30T02:26:47.541Z,1004.62
2018-03-30T02:27:47.493Z,1004.64
2018-03-30T02:28:47.438Z,1004.65
2018-03-30T02:29:47.385Z,1004.65
2018-03-30T02:30:47.333Z,1004.68
2018-03-30T02:31:47.283Z,1004.66
2018-03-30T02:32:47.230Z,1004.68
2018-03-30T02:33:47.179Z,1004.69
2018-03-30T02:34:47.127Z,1004.64
2018-03-30T02:35:47.076Z,1004.70
2018-03-30T02:36:47.024Z,1004.64
2018-03-30T02:37:46.971Z,1004.69
2018-03-30T02:38:46.919Z,1004.65
2018-03-30T02:39:46.867Z,1004.68
2018-03-30T02:40:46.817Z,1004.70
2018-03-30T02:41:46.768Z,1004.71
2018-03-30T02:42:46.711Z,1004.70
2018-03-30T02:43:46.661Z,1004.74
2018-03-30T02:44:46.611Z,1004.73
2018-03-30T02:45:46.557Z,1004.70
2018-03-30T02:46:46.504Z,1004.68
2018-03-30T02:47:46.464Z,1004.66
2018-03-30T02:48:46.401Z,1004.66
2018-03-30T02:49:46.387Z,1004.64
2018-03-30T02:50:46.297Z,1004.64
2018-03-30T02:51:46.247Z,1004.65
2018-03-30T02:52:46.195Z,1004.61
2018-03-30T02:53:46.143Z,1004.66
2018-03-30T02:54:46.090Z,1004.65
2018-03-30T02:55:46.039Z,1004.68
2018-03-30T02:56:45.986Z,1004.63
2018-03-30T02:57:45.934Z,1004.63
2018-03-30T02:58:45.883Z,1004.64
2018-03-30T02:59:45.832Z,1004.66
2018-03-30T03:00:45.788Z,1004.64
2018-03-30T03:01:45.728Z,1004.65
2018-03-30T03:02:45.676Z,1004.65
2018-03-30T03:03:45.625Z,1004.65
2018-03-30T03:04:45.579Z,1004.63
2018-03-30T03:05:45.521Z,1004.58
2018-03-30T03:06:45.468Z,1004.59
2018-03-30T03:07:45.416Z,1004.60
2018-03-30T03:08:45.365Z,1004.60
2018-03-30T03:09:45.314Z,1004.61
2018-03-30T03:10:45.260Z,1004.60
2018-03-30T03:11:45.209Z,1004.59
2018-03-30T03:12:45.158Z,1004.62
2018-03-30T03:13:45.106Z,1004.58
2018-03-30T03:14:45.056Z,1004.59
2018-03-30T03:15:45.007Z,1004.57
2018-03-30T03:16:44.951Z,1004.58
2018-03-30T03:17:44.899Z,1004.59
2018-03-30T03:18:44.845Z,1004.61
2018-03-30T03:19:44.797Z,1004.66
2018-03-30T03:20:44.747Z,1004.62
2018-03-30T03:21:44.695Z,1004.61
2018-03-30T03:22:44.638Z,1004.62
2018-03-30T03:23:44.587Z,1004.57
2018-03-30T03:24:44.535Z,1004.57
2018-03-30T03:25:44.490Z,1004.60
2018-03-30T03:26:44.432Z,1004.59
2018-03-30T03:27:44.379Z,1004.57
2018-03-30T03:28:44.329Z,1004.58
2018-03-30T03:29:44.275Z,1004.60
2018-03-30T03:30:44.224Z,1004.58
2018-03-30T03:31:44.173Z,1004.56
2018-03-30T03:32:44.120Z,1004.59
2018-03-30T03:33:44.068Z,1004.56
2018-03-30T03:34:44.026Z,1004.56
2018-03-30T03:35:43.963Z,1004.55
2018-03-30T03:36:43.911Z,1004.56
2018-03-30T03:37:43.859Z,1004.53
2018-03-30T03:38:43.806Z,1004.55
2018-03-30T03:39:43.755Z,1004.51
2018-03-30T03:40:43.703Z,1004.56
2018-03-30T03:41:43.653Z,1004.54
2018-03-30T03:42:43.598Z,1004.57
2018-03-30T03:43:43.547Z,1004.55
2018-03-30T03:44:43.494Z,1004.57
2018-03-30T03:45:43.442Z,1004.62
2018-03-30T03:46:43.389Z,1004.60
2018-03-30T03:47:43.338Z,1004.63
2018-03-30T03:48:43.291Z,1004.66
2018-03-30T03:49:43.234Z,1004.66
2018-03-30T03:50:43.180Z,1004.61
2018-03-30T03:51:43.128Z,1004.64
2018-03-30T03:52:43.076Z,1004.67
2018-03-30T03:53:43.025Z,1004.67
2018-03-30T03:54:42.971Z,1004.67
2018-03-30T03:55:42.920Z,1004.70
2018-03-30T03:56:42.870Z,1004.70
2018-03-30T03:57:42.815Z,1004.72
2018-03-30T03:58:42.762Z,1004.68
2018-03-30T03:59:42.710Z,1004.71
2018-03-30T04:00:42.658Z,1004.69
2018-03-30T04:01:42.606Z,1004.73
2018-03-30T04:02:42.553Z,1004.75
2018-03-30T04:03:42.501Z,1004.68
2018-03-30T04:04:42.450Z,1004.67
2018-03-30T04:05:42.409Z,1004.66
2018-03-30T04:06:42.344Z,1004.64
2018-03-30T04:07:42.293Z,1004.66
2018-03-30T04:08:42.242Z,1004.66
2018-03-30T04:09:42.186Z,1004.66
2018-03-30T04:10:42.134Z,1004.63
2018-03-30T04:11:42.082Z,1004.61
2018-03-30T04:12:42.035Z,1004.65
2018-03-30T04:13:41.981Z,1004.64
2018-03-30T04:14:41.924Z,1004.66
2018-03-30T04:15:41.872Z,1004.68
2018-03-30T04:16:41.820Z,1004.70
2018-03-30T04:17:41.768Z,1004.68
2018-03-30T04:18:41.714Z,1004.68
2018-03-30T04:19:41.662Z,1004.64
2018-03-30T04:20:41.610Z,1004.65
2018-03-30T04:21:41.557Z,1004.67
2018-03-30T04:22:41.504Z,1004.65
2018-03-30T04:23:41.456Z,1004.68
2018-03-30T04:24:41.400Z,1004.67
2018-03-30T04:25:41.348Z,1004.66
2018-03-30T04:26:41.294Z,1004.67
2018-03-30T04:27:41.242Z,1004.68
2018-03-30T04:28:41.189Z,1004.68
2018-03-30T04:29:41.137Z,1004.67
2018-03-30T04:30:41.084Z,1004.77
2018-03-30T04:31:41.032Z,1004.71
2018-03-30T04:32:40.985Z,1004.72
2018-03-30T04:33:40.931Z,1004.73
2018-03-30T04:34:40.874Z,1004.76
2018-03-30T04:35:40.821Z,1004.74
2018-03-30T04:36:40.773Z,1004.74
2018-03-30T04:37:40.717Z,1004.69
2018-03-30T04:38:40.664Z,1004.73
2018-03-30T04:39:40.612Z,1004.77
2018-03-30T04:40:40.559Z,1004.74
2018-03-30T04:41:40.506Z,1004.80
2018-03-30T04:42:40.453Z,1004.74
2018-03-30T04:43:40.401Z,1004.78
2018-03-30T04:44:40.349Z,1004.82
2018-03-30T04:45:40.298Z,1004.78
2018-03-30T04:46:40.244Z,1004.80
2018-03-30T04:47:40.191Z,1004.76
2018-03-30T04:48:40.141Z,1004.77
2018-03-30T04:49:40.087Z,1004.75
2018-03-30T04:50:40.033Z,1004.79
2018-03-30T04:51:39.981Z,1004.81
2018-03-30T04:52:39.928Z,1004.81
2018-03-30T04:53:39.876Z,1004.85
2018-03-30T04:54:39.823Z,1004.90
2018-03-30T04:55:39.770Z,1004.89
2018-03-30T04:56:39.718Z,1004.90
2018-03-30T04:57:39.666Z,1004.91
2018-03-30T04:58:39.613Z,1004.92
2018-03-30T04:59:39.561Z,1004.89
2018-03-30T05:00:39.511Z,1004.88
2018-03-30T05:01:39.456Z,1004.90
2018-03-30T05:02:39.412Z,1004.93
2018-03-30T05:03:39.350Z,1004.87
2018-03-30T05:04:39.298Z,1004.89
2018-03-30T05:05:39.246Z,1004.85
2018-03-30T05:06:39.193Z,1004.83
2018-03-30T05:07:39.141Z,1004.81
2018-03-30T05:08:39.089Z,1004.82
2018-03-30T05:09:39.037Z,1004.85
2018-03-30T05:10:38.985Z,1004.86
2018-03-30T05:11:38.932Z,1004.88
2018-03-30T05:12:38.880Z,1004.90
2018-03-30T05:13:38.828Z,1004.86
2018-03-30T05:14:38.775Z,1004.89
2018-03-30T05:15:38.723Z,1004.84
2018-03-30T05:16:38.673Z,1004.85
2018-03-30T05:17:38.669Z,1004.86
2018-03-30T05:18:38.568Z,1004.85
2018-03-30T05:19:38.514Z,1004.80
2018-03-30T05:20:38.462Z,1004.79
2018-03-30T05:21:38.411Z,1004.84
2018-03-30T05:22:38.358Z,1004.88
2018-03-30T05:23:38.306Z,1004.88
2018-03-30T05:24:38.257Z,1004.90
2018-03-30T05:25:38.203Z,1004.89
2018-03-30T05:26:38.150Z,1004.93
2018-03-30T05:27:38.098Z,1004.93
2018-03-30T05:28:38.047Z,1004.95
2018-03-30T05:29:37.995Z,1004.93
2018-03-30T05:30:37.942Z,1005.00
2018-03-30T05:31:37.891Z,1005.04
2018-03-30T05:32:37.840Z,1005.02
2018-03-30T05:33:37.788Z,1005.01
2018-03-30T05:34:37.736Z,1005.04
2018-03-30T05:35:37.687Z,1005.08
2018-03-30T05:36:37.638Z,1005.07
2018-03-30T05:37:37.581Z,1005.08
2018-03-30T05:38:37.529Z,1005.11
2018-03-30T05:39:37.477Z,1005.15
2018-03-30T05:40:37.426Z,1005.18
2018-03-30T05:41:37.375Z,1005.21
2018-03-30T05:42:37.322Z,1005.20
2018-03-30T05:43:37.271Z,1005.22
2018-03-30T05:44:37.227Z,1005.23
2018-03-30T05:45:37.169Z,1005.21
2018-03-30T05:46:37.116Z,1005.25
2018-03-30T05:47:37.067Z,1005.26
2018-03-30T05:48:37.014Z,1005.32
2018-03-30T05:49:36.964Z,1005.24
2018-03-30T05:50:36.911Z,1005.25
2018-03-30T05:51:36.860Z,1005.27
2018-03-30T05:52:36.810Z,1005.27
2018-03-30T05:53:36.759Z,1005.26
2018-03-30T05:54:36.711Z,1005.28
2018-03-30T05:55:36.656Z,1005.28
2018-03-30T05:56:36.605Z,1005.30
2018-03-30T05:57:36.555Z,1005.31
2018-03-30T05:58:36.503Z,1005.30
2018-03-30T05:59:36.453Z,1005.36
2018-03-30T06:00:36.408Z,1005.34
2018-03-30T06:01:36.358Z,1005.36
2018-03-30T06:02:36.302Z,1005.37
2018-03-30T06:03:36.254Z,1005.40
2018-03-30T06:04:36.200Z,1005.46
2018-03-30T06:05:36.149Z,1005.45
2018-03-30T06:06:36.098Z,1005.44
2018-03-30T06:07:36.051Z,1005.44
2018-03-30T06:08:35.997Z,1005.45
2018-03-30T06:09:35.947Z,1005.42
2018-03-30T06:10:35.895Z,1005.43
2018-03-30T06:11:35.845Z,1005.39
2018-03-30T06:12:35.794Z,1005.41
2018-03-30T06:13:35.744Z,1005.40
2018-03-30T06:14:35.693Z,1005.38
2018-03-30T06:15:35.643Z,1005.37
2018-03-30T06:16:35.593Z,1005.41
2018-03-30T06:17:35.553Z,1005.40
2018-03-30T06:18:35.492Z,1005.34
2018-03-30T06:19:35.442Z,1005.34
2018-03-30T06:20:35.392Z,1005.40
2018-03-30T06:21:35.342Z,1005.40
2018-03-30T06:22:35.292Z,1005.42
2018-03-30T06:23:35.242Z,1005.45
2018-03-30T06:24:35.193Z,1005.49
2018-03-30T06:25:35.143Z,1005.54
2018-03-30T06:26:35.095Z,1005.59
2018-03-30T06:27:35.045Z,1005.65
2018-03-30T06:28:34.995Z,1005.68
2018-03-30T06:29:34.947Z,1005.69
2018-03-30T06:30:34.897Z,1005.71
2018-03-30T06:31:34.848Z,1005.71
2018-03-30T06:32:34.801Z,1005.74
2018-03-30T06:33:34.752Z,1005.79
2018-03-30T06:34:34.702Z,1005.82
2018-03-30T06:35:34.659Z,1005.82
2018-03-30T06:36:34.607Z,1005.89
2018-03-30T06:37:34.559Z,1005.95
2018-03-30T06:38:34.510Z,1006.00
2018-03-30T06:39:34.464Z,1006.00
2018-03-30T06:40:34.417Z,1006.07
2018-03-30T06:41:34.370Z,1006.00
2018-03-30T06:42:34.322Z,1006.04
2018-03-30T06:43:34.276Z,1006.03
2018-03-30T06:44:34.229Z,1005.99
2018-03-30T06:45:34.184Z,1005.97
2018-03-30T06:46:34.137Z,1005.96
2018-03-30T06:47:34.092Z,1005.93
2018-03-30T06:48:34.047Z,1005.96
2018-03-30T06:49:34.002Z,1005.91
2018-03-30T06:50:33.956Z,1005.97
2018-03-30T06:51:33.911Z,1006.03
2018-03-30T06:52:33.868Z,1006.10
2018-03-30T06:53:33.823Z,1006.09
2018-03-30T06:54:33.777Z,1006.17
2018-03-30T06:55:33.735Z,1006.26
2018-03-30T06:56:33.688Z,1006.26
2018-03-30T06:57:33.645Z,1006.25
2018-03-30T06:58:33.640Z,1006.26
2018-03-30T06:59:33.556Z,1006.28
2018-03-30T07:00:33.514Z,1006.36
2018-03-30T07:01:33.469Z,1006.35
2018-03-30T07:02:33.424Z,1006.30
2018-03-30T07:03:33.381Z,1006.35
2018-03-30T07:04:33.338Z,1006.29
2018-03-30T07:05:33.296Z,1006.28
2018-03-30T07:06:33.255Z,1006.25
2018-03-30T07:07:33.209Z,1006.24
2018-03-30T07:08:33.166Z,1006.16
2018-03-30T07:09:33.124Z,1006.09
2018-03-30T07:10:33.081Z,1006.02
2018-03-30T07:11:33.090Z,1005.99
2018-03-30T07:12:33.001Z,1006.02
2018-03-30T07:13:32.955Z,1006.03
2018-03-30T07:14:32.911Z,1006.00
2018-03-30T07:15:32.871Z,1006.01
2018-03-30T07:16:32.827Z,1006.08
2018-03-30T07:17:32.785Z,1006.08
2018-03-30T07:18:32.741Z,1006.12
2018-03-30T07:19:32.699Z,1006.14
2018-03-30T07:20:32.658Z,1006.14
2018-03-30T07:21:32.655Z,1006.19
2018-03-30T07:22:32.613Z,1006.22
2018-03-30T07:23:32.529Z,1006.23
2018-03-30T07:24:32.488Z,1006.24
2018-03-30T07:25:32.444Z,1006.26
2018-03-30T07:26:32.408Z,1006.27
2018-03-30T07:27:32.358Z,1006.28
2018-03-30T07:28:32.317Z,1006.29
2018-03-30T07:29:32.274Z,1006.27
2018-03-30T07:30:32.231Z,1006.31
2018-03-30T07:31:32.189Z,1006.29
2018-03-30T07:32:32.147Z,1006.30
2018-03-30T07:33:32.104Z,1006.29
2018-03-30T07:34:32.061Z,1006.26
2018-03-30T07:35:32.020Z,1006.31
2018-03-30T07:36:31.977Z,1006.36
2018-03-30T07:37:31.935Z,1006.35
2018-03-30T07:38:31.892Z,1006.37
2018-03-30T07:39:31.848Z,1006.43
2018-03-30T07:40:31.808Z,1006.42
2018-03-30T07:41:31.770Z,1006.47
2018-03-30T07:42:31.724Z,1006.50
2018-03-30T07:43:31.696Z,1006.50
2018-03-30T07:44:31.641Z,1006.54
2018-03-30T07:45:31.605Z,1006.61
2018-03-30T07:46:31.560Z,1006.56
2018-03-30T07:47:31.518Z,1006.59
2018-03-30T07:48:31.478Z,1006.59
2018-03-30T07:49:31.437Z,1006.52
2018-03-30T07:50:31.395Z,1006.40
2018-03-30T07:51:31.360Z,1006.40
2018-03-30T07:52:31.316Z,1006.35
2018-03-30T07:53:31.277Z,1006.44
2018-03-30T07:54:31.236Z,1006.45
2018-03-30T07:55:31.198Z,1006.42
2018-03-30T07:56:31.158Z,1006.45
2018-03-30T07:57:31.118Z,1006.50
2018-03-30T07:58:31.077Z,1006.44
2018-03-30T07:59:31.037Z,1006.50
2018-03-30T08:00:30.997Z,1006.44
2018-03-30T08:01:30.963Z,1006.40
2018-03-30T08:02:30.919Z,1006.36
2018-03-30T08:03:30.937Z,1006.39
2018-03-30T08:04:30.836Z,1006.43
2018-03-30T08:05:30.796Z,1006.47
2018-03-30T08:06:30.762Z,1006.52
2018-03-30T08:07:30.721Z,1006.54
2018-03-30T08:08:30.674Z,1006.55
2018-03-30T08:09:30.633Z,1006.60
2018-03-30T08:10:30.592Z,1006.54
2018-03-30T08:11:30.557Z,1006.51
2018-03-30T08:12:30.512Z,1006.47
2018-03-30T08:13:30.520Z,1006.47
2018-03-30T08:14:30.429Z,1006.46
2018-03-30T08:15:30.389Z,1006.48
2018-03-30T08:16:30.347Z,1006.51
2018-03-30T08:17:30.307Z,1006.52
2018-03-30T08:18:30.266Z,1006.51
2018-03-30T08:19:30.225Z,1006.49
2018-03-30T08:20:30.185Z,1006.56
2018-03-30T08:21:30.145Z,1006.60
2018-03-30T08:22:30.150Z,1006.53
2018-03-30T08:23:30.063Z,1006.51
2018-03-30T08:24:30.022Z,1006.63
2018-03-30T08:25:29.988Z,1006.76
2018-03-30T08:26:29.939Z,1006.87
2018-03-30T08:27:29.900Z,1006.93
2018-03-30T08:28:29.859Z,1006.91
2018-03-30T08:29:29.819Z,1006.94
2018-03-30T08:30:29.788Z,1006.92
2018-03-30T08:31:29.740Z,1006.87
2018-03-30T08:32:29.700Z,1006.82
2018-03-30T08:33:29.661Z,1006.74
2018-03-30T08:34:29.622Z,1006.75
2018-03-30T08:35:29.583Z,1006.68
2018-03-30T08:36:29.551Z,1006.71
2018-03-30T08:37:29.507Z,1006.73
2018-03-30T08:38:29.468Z,1006.79
2018-03-30T08:39:29.431Z,1006.77
2018-03-30T08:40:29.397Z,1006.81
2018-03-30T08:41:29.356Z,1006.77
2018-03-30T08:42:29.317Z,1006.83
2018-03-30T08:43:29.280Z,1006.83
2018-03-30T08:44:29.243Z,1006.85
2018-03-30T08:45:29.207Z,1006.91
2018-03-30T08:46:29.171Z,1006.86
2018-03-30T08:47:29.132Z,1006.89
2018-03-30T08:48:29.096Z,1006.90
2018-03-30T08:49:29.059Z,1006.90
2018-03-30T08:50:29.022Z,1006.89
2018-03-30T08:51:28.985Z,1006.85
2018-03-30T08:52:28.948Z,1006.78
2018-03-30T08:53:28.911Z,1006.74
2018-03-30T08:54:28.876Z,1006.69
2018-03-30T08:55:28.837Z,1006.68
2018-03-30T08:56:28.800Z,1006.62
2018-03-30T08:57:28.763Z,1006.51
2018-03-30T08:58:28.726Z,1006.45
2018-03-30T08:59:28.689Z,1006.43
2018-03-30T09:00:28.652Z,1006.34
2018-03-30T09:01:28.615Z,1006.42
2018-03-30T09:02:28.575Z,1006.44
2018-03-30T09:03:28.538Z,1006.39
2018-03-30T09:04:28.500Z,1006.43
2018-03-30T09:05:28.562Z,1006.41
2018-03-30T09:06:28.423Z,1006.43
2018-03-30T09:07:28.385Z,1006.39
2018-03-30T09:08:28.346Z,1006.37
2018-03-30T09:09:28.307Z,1006.33
2018-03-30T09:10:28.267Z,1006.33
2018-03-30T09:11:28.228Z,1006.33
2018-03-30T09:12:28.191Z,1006.31
2018-03-30T09:13:28.148Z,1006.34
2018-03-30T09:14:28.108Z,1006.38
2018-03-30T09:15:28.067Z,1006.34
2018-03-30T09:16:28.027Z,1006.32
2018-03-30T09:17:27.987Z,1006.35
2018-03-30T09:18:27.945Z,1006.32
2018-03-30T09:19:27.904Z,1006.31
2018-03-30T09:20:27.871Z,1006.30
2018-03-30T09:21:27.823Z,1006.28
2018-03-30T09:22:27.781Z,1006.25
2018-03-30T09:23:27.739Z,1006.24
2018-03-30T09:24:27.698Z,1006.25
2018-03-30T09:25:27.657Z,1006.26
2018-03-30T09:26:27.620Z,1006.22
2018-03-30T09:27:27.572Z,1006.21
2018-03-30T09:28:27.535Z,1006.25
2018-03-30T09:29:27.493Z,1006.26
2018-03-30T09:30:27.450Z,1006.29
2018-03-30T09:31:27.404Z,1006.28
2018-03-30T09:32:27.364Z,1006.28
2018-03-30T09:33:27.319Z,1006.30
2018-03-30T09:34:27.279Z,1006.31
2018-03-30T09:35:27.233Z,1006.31
2018-03-30T09:36:27.191Z,1006.28
2018-03-30T09:37:27.148Z,1006.22
2018-03-30T09:38:27.103Z,1006.20
2018-03-30T09:39:27.061Z,1006.16
2018-03-30T09:40:27.018Z,1006.17
2018-03-30T09:41:26.974Z,1006.06
2018-03-30T09:42:26.932Z,1006.10
2018-03-30T09:43:26.887Z,1006.03
2018-03-30T09:44:26.845Z,1006.04
2018-03-30T09:45:26.799Z,1006.10
2018-03-30T09:46:26.755Z,1006.04
2018-03-30T09:47:26.760Z,1006.07
2018-03-30T09:48:26.667Z,1006.04
2018-03-30T09:49:26.623Z,1005.98
2018-03-30T09:50:26.578Z,1005.99
2018-03-30T09:51:26.534Z,1005.97
2018-03-30T09:52:26.490Z,1005.97
2018-03-30T09:53:26.446Z,1005.93
2018-03-30T09:54:26.400Z,1005.94
2018-03-30T09:55:26.356Z,1005.97
2018-03-30T09:56:26.324Z,1005.92
2018-03-30T09:57:26.268Z,1005.89
2018-03-30T09:58:26.222Z,1005.93
2018-03-30T09:59:26.179Z,1005.97
2018-03-30T10:00:26.133Z,1005.91
2018-03-30T10:01:26.089Z,1005.84
2018-03-30T10:02:26.044Z,1005.85
2018-03-30T10:03:25.999Z,1005.87
2018-03-30T10:04:25.955Z,1005.80
2018-03-30T10:05:25.910Z,1005.75
2018-03-30T10:06:25.868Z,1005.75
2018-03-30T10:07:25.820Z,1005.77
2018-03-30T10:08:25.775Z,1005.73
2018-03-30T10:09:25.730Z,1005.70
2018-03-30T10:10:25.685Z,1005.73
2018-03-30T10:11:25.641Z,1005.70
2018-03-30T10:12:25.596Z,1005.72
2018-03-30T10:13:25.552Z,1005.71
2018-03-30T10:14:25.508Z,1005.72
2018-03-30T10:15:25.461Z,1005.70
2018-03-30T10:16:25.425Z,1005.68
2018-03-30T10:17:25.374Z,1005.67
2018-03-30T10:18:25.332Z,1005.65
2018-03-30T10:19:25.284Z,1005.63
2018-03-30T10:20:25.238Z,1005.62
2018-03-30T10:21:25.194Z,1005.58
2018-03-30T10:22:25.149Z,1005.57
2018-03-30T10:23:25.105Z,1005.54
2018-03-30T10:24:25.076Z,1005.53
2018-03-30T10:25:25.017Z,1005.57
2018-03-30T10:26:24.971Z,1005.57
2018-03-30T10:27:24.929Z,1005.57
2018-03-30T10:28:24.886Z,1005.53
2018-03-30T10:29:24.839Z,1005.55
2018-03-30T10:30:24.795Z,1005.53
2018-03-30T10:31:24.754Z,1005.55
2018-03-30T10:32:24.708Z,1005.55
2018-03-30T10:33:24.663Z,1005.54
2018-03-30T10:34:24.618Z,1005.51
2018-03-30T10:35:24.574Z,1005.55
2018-03-30T10:36:24.534Z,1005.54
2018-03-30T10:37:24.487Z,1005.51
2018-03-30T10:38:24.442Z,1005.54
2018-03-30T10:39:24.400Z,1005.52
2018-03-30T10:40:24.355Z,1005.49
2018-03-30T10:41:24.311Z,1005.44
2018-03-30T10:42:24.270Z,1005.49
2018-03-30T10:43:24.223Z,1005.41
2018-03-30T10:44:24.180Z,1005.41
2018-03-30T10:45:24.135Z,1005.43
2018-03-30T10:46:24.091Z,1005.43
2018-03-30T10:47:24.048Z,1005.38
2018-03-30T10:48:24.003Z,1005.41
2018-03-30T10:49:23.960Z,1005.41
2018-03-30T10:50:23.915Z,1005.42
2018-03-30T10:51:23.872Z,1005.43
2018-03-30T10:52:23.828Z,1005.41
2018-03-30T10:53:23.785Z,1005.35
2018-03-30T10:54:23.740Z,1005.37
2018-03-30T10:55:23.699Z,1005.29
2018-03-30T10:56:23.653Z,1005.27
2018-03-30T10:57:23.609Z,1005.28
2018-03-30T10:58:23.564Z,1005.30
2018-03-30T10:59:23.520Z,1005.28
2018-03-30T11:00:23.481Z,1005.26
2018-03-30T11:01:23.432Z,1005.21
2018-03-30T11:02:23.387Z,1005.19
2018-03-30T11:03:23.344Z,1005.18
2018-03-30T11:04:23.301Z,1005.17
2018-03-30T11:05:23.305Z,1005.13
2018-03-30T11:06:23.213Z,1005.16
2018-03-30T11:07:23.165Z,1005.10
2018-03-30T11:08:23.206Z,1005.08
2018-03-30T11:09:23.078Z,1005.08
2018-03-30T11:10:23.031Z,1005.01
2018-03-30T11:11:22.988Z,1004.97
2018-03-30T11:12:22.943Z,1004.96
2018-03-30T11:13:22.898Z,1004.94
2018-03-30T11:14:22.858Z,1004.91
2018-03-30T11:15:22.808Z,1004.89
2018-03-30T11:16:22.764Z,1004.86
2018-03-30T11:17:22.725Z,1004.84
2018-03-30T11:18:22.674Z,1004.88
2018-03-30T11:19:22.629Z,1004.80
2018-03-30T11:20:22.585Z,1004.81
2018-03-30T11:21:22.540Z,1004.83
2018-03-30T11:22:22.495Z,1004.80
2018-03-30T11:23:22.450Z,1004.83
2018-03-30T11:24:22.405Z,1004.80
2018-03-30T11:25:22.361Z,1004.80
2018-03-30T11:26:22.317Z,1004.78
2018-03-30T11:27:22.271Z,1004.72
2018-03-30T11:28:22.226Z,1004.73
2018-03-30T11:29:22.181Z,1004.70
2018-03-30T11:30:22.135Z,1004.64
2018-03-30T11:31:22.090Z,1004.65
2018-03-30T11:32:22.045Z,1004.63
2018-03-30T11:33:22.000Z,1004.58
2018-03-30T11:34:21.954Z,1004.63
2018-03-30T11:35:21.909Z,1004.56
2018-03-30T11:36:21.897Z,1004.51
2018-03-30T11:37:21.819Z,1004.47
2018-03-30T11:38:21.773Z,1004.45
2018-03-30T11:39:21.728Z,1004.52
2018-03-30T11:40:21.682Z,1004.46
2018-03-30T11:41:21.638Z,1004.51
2018-03-30T11:42:21.591Z,1004.52
2018-03-30T11:43:21.645Z,1004.49
2018-03-30T11:44:21.499Z,1004.50
2018-03-30T11:45:21.460Z,1004.46
2018-03-30T11:46:21.407Z,1004.46
2018-03-30T11:47:21.361Z,1004.41
2018-03-30T11:48:21.317Z,1004.41
2018-03-30T11:49:21.270Z,1004.40
2018-03-30T11:50:21.223Z,1004.32
2018-03-30T11:51:21.177Z,1004.32
2018-03-30T11:52:21.131Z,1004.27
2018-03-30T11:53:21.084Z,1004.27
2018-03-30T11:54:21.041Z,1004.30
2018-03-30T11:55:20.992Z,1004.26
2018-03-30T11:56:20.945Z,1004.21
2018-03-30T11:57:20.905Z,1004.19
2018-03-30T11:58:20.853Z,1004.18
2018-03-30T11:59:20.807Z,1004.17
2018-03-30T12:00:20.761Z,1004.15
2018-03-30T12:01:20.715Z,1004.13
2018-03-30T12:02:20.668Z,1004.13
2018-03-30T12:03:20.621Z,1004.10
2018-03-30T12:04:20.583Z,1004.13
2018-03-30T12:05:20.528Z,1004.11